sensor_id;sensor_type;location;lat;lon;timestamp;P1;durP1;ratioP1;P2;durP2;ratioP2
67049;SDS011;53955;52.442;13.284;2022-12-18T00:02:11;34.63;;;12.43;;
67049;SDS011;53955;52.442;13.284;2022-12-18T00:04:37;36.27;;;12.97;;
67049;SDS011;53955;52.442;13.284;2022-12-18T00:07:06;31.90;;;12.20;;
67049;SDS011;53955;52.442;13.284;2022-12-18T00:09:32;36.40;;;13.13;;
67049;SDS011;53955;52.442;13.284;2022-12-18T00:11:59;35.37;;;13.13;;
67049;SDS011;53955;52.442;13.284;2022-12-18T00:14:26;35.60;;;14.07;;
67049;SDS011;53955;52.442;13.284;2022-12-18T00:16:52;37.07;;;13.77;;
67049;SDS011;53955;52.442;13.284;2022-12-18T00:19:19;36.97;;;12.87;;
67049;SDS011;53955;52.442;13.284;2022-12-18T00:21:45;38.57;;;14.40;;
67049;SDS011;53955;52.442;13.284;2022-12-18T00:24:13;35.37;;;13.40;;
67049;SDS011;53955;52.442;13.284;2022-12-18T00:26:40;39.50;;;13.70;;
67049;SDS011;53955;52.442;13.284;2022-12-18T00:29:07;34.40;;;13.53;;
67049;SDS011;53955;52.442;13.284;2022-12-18T00:31:38;32.33;;;13.23;;
67049;SDS011;53955;52.442;13.284;2022-12-18T00:34:05;35.93;;;12.97;;
67049;SDS011;53955;52.442;13.284;2022-12-18T00:36:32;35.97;;;12.57;;
67049;SDS011;53955;52.442;13.284;2022-12-18T00:39:00;37.27;;;11.70;;
67049;SDS011;53955;52.442;13.284;2022-12-18T00:41:30;29.70;;;11.50;;
67049;SDS011;53955;52.442;13.284;2022-12-18T00:44:16;30.70;;;11.53;;
67049;SDS011;53955;52.442;13.284;2022-12-18T00:46:44;36.70;;;13.83;;
67049;SDS011;53955;52.442;13.284;2022-12-18T00:49:11;39.40;;;12.93;;
67049;SDS011;53955;52.442;13.284;2022-12-18T00:51:38;31.53;;;12.47;;
67049;SDS011;53955;52.442;13.284;2022-12-18T00:54:04;37.17;;;13.07;;
67049;SDS011;53955;52.442;13.284;2022-12-18T00:56:32;36.33;;;13.17;;
67049;SDS011;53955;52.442;13.284;2022-12-18T00:59:01;35.20;;;13.07;;
67049;SDS011;53955;52.442;13.284;2022-12-18T01:01:28;38.40;;;12.67;;
67049;SDS011;53955;52.442;13.284;2022-12-18T01:03:54;37.53;;;13.57;;
67049;SDS011;53955;52.442;13.284;2022-12-18T01:06:24;39.53;;;14.00;;
67049;SDS011;53955;52.442;13.284;2022-12-18T01:08:50;37.87;;;12.20;;
67049;SDS011;53955;52.442;13.284;2022-12-18T01:11:18;35.40;;;13.60;;
67049;SDS011;53955;52.442;13.284;2022-12-18T01:13:47;34.00;;;12.70;;
67049;SDS011;53955;52.442;13.284;2022-12-18T01:16:14;35.87;;;13.07;;
67049;SDS011;53955;52.442;13.284;2022-12-18T01:18:42;31.83;;;12.03;;
67049;SDS011;53955;52.442;13.284;2022-12-18T01:21:09;32.47;;;12.27;;
67049;SDS011;53955;52.442;13.284;2022-12-18T01:23:37;31.73;;;11.57;;
67049;SDS011;53955;52.442;13.284;2022-12-18T01:26:04;35.07;;;13.13;;
67049;SDS011;53955;52.442;13.284;2022-12-18T01:28:32;32.00;;;12.37;;
67049;SDS011;53955;52.442;13.284;2022-12-18T01:31:10;35.87;;;12.47;;
67049;SDS011;53955;52.442;13.284;2022-12-18T01:33:41;34.27;;;12.30;;
67049;SDS011;53955;52.442;13.284;2022-12-18T01:36:11;37.43;;;11.23;;
67049;SDS011;53955;52.442;13.284;2022-12-18T01:38:41;32.13;;;11.83;;
67049;SDS011;53955;52.442;13.284;2022-12-18T01:41:08;32.17;;;11.73;;
67049;SDS011;53955;52.442;13.284;2022-12-18T01:43:41;35.73;;;11.77;;
67049;SDS011;53955;52.442;13.284;2022-12-18T01:46:15;32.10;;;12.63;;
67049;SDS011;53955;52.442;13.284;2022-12-18T01:48:43;38.07;;;12.70;;
67049;SDS011;53955;52.442;13.284;2022-12-18T01:51:12;37.97;;;12.83;;
67049;SDS011;53955;52.442;13.284;2022-12-18T01:53:40;38.10;;;13.40;;
67049;SDS011;53955;52.442;13.284;2022-12-18T01:56:07;32.73;;;11.73;;
67049;SDS011;53955;52.442;13.284;2022-12-18T01:58:39;30.97;;;11.47;;
67049;SDS011;53955;52.442;13.284;2022-12-18T02:01:12;36.57;;;13.40;;
67049;SDS011;53955;52.442;13.284;2022-12-18T02:03:41;31.37;;;11.97;;
67049;SDS011;53955;52.442;13.284;2022-12-18T02:06:11;28.97;;;11.17;;
67049;SDS011;53955;52.442;13.284;2022-12-18T02:08:41;33.03;;;11.43;;
67049;SDS011;53955;52.442;13.284;2022-12-18T02:11:13;32.73;;;12.53;;
67049;SDS011;53955;52.442;13.284;2022-12-18T02:13:51;36.30;;;12.23;;
67049;SDS011;53955;52.442;13.284;2022-12-18T02:16:25;32.40;;;12.23;;
67049;SDS011;53955;52.442;13.284;2022-12-18T02:19:00;36.57;;;12.50;;
67049;SDS011;53955;52.442;13.284;2022-12-18T02:21:34;35.47;;;12.97;;
67049;SDS011;53955;52.442;13.284;2022-12-18T02:24:13;39.47;;;13.10;;
67049;SDS011;53955;52.442;13.284;2022-12-18T02:26:52;33.00;;;12.27;;
67049;SDS011;53955;52.442;13.284;2022-12-18T02:29:22;35.87;;;14.97;;
67049;SDS011;53955;52.442;13.284;2022-12-18T02:31:52;35.63;;;12.80;;
67049;SDS011;53955;52.442;13.284;2022-12-18T02:34:30;32.40;;;12.20;;
67049;SDS011;53955;52.442;13.284;2022-12-18T02:37:00;35.10;;;11.90;;
67049;SDS011;53955;52.442;13.284;2022-12-18T02:39:30;37.20;;;11.83;;
67049;SDS011;53955;52.442;13.284;2022-12-18T02:42:01;30.17;;;11.37;;
67049;SDS011;53955;52.442;13.284;2022-12-18T02:44:32;33.17;;;11.83;;
67049;SDS011;53955;52.442;13.284;2022-12-18T02:46:59;38.27;;;13.17;;
67049;SDS011;53955;52.442;13.284;2022-12-18T02:49:28;38.77;;;13.03;;
67049;SDS011;53955;52.442;13.284;2022-12-18T02:52:01;36.63;;;12.90;;
67049;SDS011;53955;52.442;13.284;2022-12-18T02:54:40;35.47;;;12.37;;
67049;SDS011;53955;52.442;13.284;2022-12-18T02:57:18;34.80;;;12.20;;
67049;SDS011;53955;52.442;13.284;2022-12-18T02:59:53;43.07;;;12.10;;
67049;SDS011;53955;52.442;13.284;2022-12-18T03:02:26;34.53;;;13.10;;
67049;SDS011;53955;52.442;13.284;2022-12-18T03:05:01;38.67;;;11.33;;
67049;SDS011;53955;52.442;13.284;2022-12-18T03:07:35;36.10;;;13.33;;
67049;SDS011;53955;52.442;13.284;2022-12-18T03:10:06;33.37;;;12.67;;
67049;SDS011;53955;52.442;13.284;2022-12-18T03:12:40;36.53;;;12.60;;
67049;SDS011;53955;52.442;13.284;2022-12-18T03:15:11;37.80;;;13.23;;
67049;SDS011;53955;52.442;13.284;2022-12-18T03:17:44;36.50;;;13.93;;
67049;SDS011;53955;52.442;13.284;2022-12-18T03:20:16;35.00;;;12.80;;
67049;SDS011;53955;52.442;13.284;2022-12-18T03:22:46;44.93;;;13.80;;
67049;SDS011;53955;52.442;13.284;2022-12-18T03:25:17;45.57;;;12.70;;
67049;SDS011;53955;52.442;13.284;2022-12-18T03:27:47;38.37;;;14.17;;
67049;SDS011;53955;52.442;13.284;2022-12-18T03:30:17;34.73;;;13.03;;
67049;SDS011;53955;52.442;13.284;2022-12-18T03:32:44;39.63;;;13.63;;
67049;SDS011;53955;52.442;13.284;2022-12-18T03:35:17;41.63;;;14.83;;
67049;SDS011;53955;52.442;13.284;2022-12-18T03:37:47;38.50;;;13.27;;
67049;SDS011;53955;52.442;13.284;2022-12-18T03:40:14;44.57;;;15.10;;
67049;SDS011;53955;52.442;13.284;2022-12-18T03:42:43;41.57;;;14.17;;
67049;SDS011;53955;52.442;13.284;2022-12-18T03:45:19;45.27;;;14.73;;
67049;SDS011;53955;52.442;13.284;2022-12-18T03:47:53;40.03;;;14.53;;
67049;SDS011;53955;52.442;13.284;2022-12-18T03:50:30;38.87;;;14.10;;
67049;SDS011;53955;52.442;13.284;2022-12-18T03:53:06;41.83;;;15.87;;
67049;SDS011;53955;52.442;13.284;2022-12-18T03:55:47;37.00;;;14.13;;
67049;SDS011;53955;52.442;13.284;2022-12-18T03:58:17;36.67;;;13.00;;
67049;SDS011;53955;52.442;13.284;2022-12-18T04:00:46;44.93;;;15.07;;
67049;SDS011;53955;52.442;13.284;2022-12-18T04:03:16;38.77;;;13.70;;
67049;SDS011;53955;52.442;13.284;2022-12-18T04:05:46;35.27;;;12.27;;
67049;SDS011;53955;52.442;13.284;2022-12-18T04:08:16;34.97;;;12.97;;
67049;SDS011;53955;52.442;13.284;2022-12-18T04:10:43;42.73;;;15.73;;
67049;SDS011;53955;52.442;13.284;2022-12-18T04:13:09;40.63;;;14.70;;
67049;SDS011;53955;52.442;13.284;2022-12-18T04:15:37;42.43;;;14.43;;
67049;SDS011;53955;52.442;13.284;2022-12-18T04:18:05;35.77;;;13.97;;
67049;SDS011;53955;52.442;13.284;2022-12-18T04:20:31;37.03;;;13.40;;
67049;SDS011;53955;52.442;13.284;2022-12-18T04:22:58;32.97;;;13.37;;
67049;SDS011;53955;52.442;13.284;2022-12-18T04:25:25;40.23;;;13.50;;
67049;SDS011;53955;52.442;13.284;2022-12-18T04:27:51;43.77;;;13.53;;
67049;SDS011;53955;52.442;13.284;2022-12-18T04:30:18;41.70;;;15.40;;
67049;SDS011;53955;52.442;13.284;2022-12-18T04:32:46;44.90;;;13.93;;
67049;SDS011;53955;52.442;13.284;2022-12-18T04:35:12;39.50;;;14.93;;
67049;SDS011;53955;52.442;13.284;2022-12-18T04:37:39;43.07;;;15.10;;
67049;SDS011;53955;52.442;13.284;2022-12-18T04:40:06;46.40;;;13.97;;
67049;SDS011;53955;52.442;13.284;2022-12-18T04:42:33;42.77;;;15.50;;
67049;SDS011;53955;52.442;13.284;2022-12-18T04:45:00;48.90;;;14.93;;
67049;SDS011;53955;52.442;13.284;2022-12-18T04:47:26;41.87;;;14.50;;
67049;SDS011;53955;52.442;13.284;2022-12-18T04:49:54;37.00;;;13.63;;
67049;SDS011;53955;52.442;13.284;2022-12-18T04:52:21;39.90;;;14.57;;
67049;SDS011;53955;52.442;13.284;2022-12-18T04:54:47;47.40;;;15.83;;
67049;SDS011;53955;52.442;13.284;2022-12-18T04:57:14;48.73;;;16.47;;
67049;SDS011;53955;52.442;13.284;2022-12-18T04:59:42;37.10;;;14.10;;
67049;SDS011;53955;52.442;13.284;2022-12-18T05:02:09;45.83;;;17.07;;
67049;SDS011;53955;52.442;13.284;2022-12-18T05:04:36;44.77;;;15.67;;
67049;SDS011;53955;52.442;13.284;2022-12-18T05:07:04;40.77;;;14.17;;
67049;SDS011;53955;52.442;13.284;2022-12-18T05:09:30;36.20;;;13.97;;
67049;SDS011;53955;52.442;13.284;2022-12-18T05:11:57;43.90;;;17.03;;
67049;SDS011;53955;52.442;13.284;2022-12-18T05:14:24;41.43;;;15.00;;
67049;SDS011;53955;52.442;13.284;2022-12-18T05:16:52;40.30;;;14.23;;
67049;SDS011;53955;52.442;13.284;2022-12-18T05:19:18;44.80;;;15.73;;
67049;SDS011;53955;52.442;13.284;2022-12-18T05:21:45;45.13;;;16.20;;
67049;SDS011;53955;52.442;13.284;2022-12-18T05:24:13;43.20;;;16.17;;
67049;SDS011;53955;52.442;13.284;2022-12-18T05:26:40;42.63;;;15.63;;
67049;SDS011;53955;52.442;13.284;2022-12-18T05:29:06;44.63;;;16.33;;
67049;SDS011;53955;52.442;13.284;2022-12-18T05:31:33;42.93;;;15.43;;
67049;SDS011;53955;52.442;13.284;2022-12-18T05:33:59;46.57;;;14.73;;
67049;SDS011;53955;52.442;13.284;2022-12-18T05:36:26;41.70;;;13.43;;
67049;SDS011;53955;52.442;13.284;2022-12-18T05:38:52;39.83;;;13.73;;
67049;SDS011;53955;52.442;13.284;2022-12-18T05:41:20;34.63;;;13.20;;
67049;SDS011;53955;52.442;13.284;2022-12-18T05:43:47;36.73;;;12.90;;
67049;SDS011;53955;52.442;13.284;2022-12-18T05:46:14;40.30;;;14.57;;
67049;SDS011;53955;52.442;13.284;2022-12-18T05:48:42;37.80;;;12.73;;
67049;SDS011;53955;52.442;13.284;2022-12-18T05:51:09;33.97;;;13.00;;
67049;SDS011;53955;52.442;13.284;2022-12-18T05:53:39;33.50;;;12.17;;
67049;SDS011;53955;52.442;13.284;2022-12-18T05:56:07;34.67;;;13.00;;
67049;SDS011;53955;52.442;13.284;2022-12-18T05:58:36;29.83;;;12.03;;
67049;SDS011;53955;52.442;13.284;2022-12-18T06:01:06;33.17;;;11.57;;
67049;SDS011;53955;52.442;13.284;2022-12-18T06:03:34;29.77;;;12.43;;
67049;SDS011;53955;52.442;13.284;2022-12-18T06:06:01;38.57;;;12.63;;
67049;SDS011;53955;52.442;13.284;2022-12-18T06:08:28;27.77;;;10.97;;
67049;SDS011;53955;52.442;13.284;2022-12-18T06:10:55;30.97;;;12.73;;
67049;SDS011;53955;52.442;13.284;2022-12-18T06:13:22;33.77;;;12.17;;
67049;SDS011;53955;52.442;13.284;2022-12-18T06:15:50;28.23;;;11.37;;
67049;SDS011;53955;52.442;13.284;2022-12-18T06:18:16;34.73;;;12.27;;
67049;SDS011;53955;52.442;13.284;2022-12-18T06:20:43;27.97;;;11.87;;
67049;SDS011;53955;52.442;13.284;2022-12-18T06:23:09;30.37;;;12.13;;
67049;SDS011;53955;52.442;13.284;2022-12-18T06:25:37;38.60;;;13.10;;
67049;SDS011;53955;52.442;13.284;2022-12-18T06:28:04;34.37;;;13.63;;
67049;SDS011;53955;52.442;13.284;2022-12-18T06:30:31;34.23;;;13.97;;
67049;SDS011;53955;52.442;13.284;2022-12-18T06:32:59;33.33;;;13.80;;
67049;SDS011;53955;52.442;13.284;2022-12-18T06:35:26;34.70;;;13.13;;
67049;SDS011;53955;52.442;13.284;2022-12-18T06:37:53;35.60;;;13.80;;
67049;SDS011;53955;52.442;13.284;2022-12-18T06:40:19;33.77;;;12.27;;
67049;SDS011;53955;52.442;13.284;2022-12-18T06:42:46;33.53;;;11.97;;
67049;SDS011;53955;52.442;13.284;2022-12-18T06:45:15;30.27;;;12.63;;
67049;SDS011;53955;52.442;13.284;2022-12-18T06:47:42;30.20;;;12.67;;
67049;SDS011;53955;52.442;13.284;2022-12-18T06:50:10;29.83;;;10.90;;
67049;SDS011;53955;52.442;13.284;2022-12-18T06:52:38;31.23;;;11.67;;
67049;SDS011;53955;52.442;13.284;2022-12-18T06:55:07;31.03;;;12.00;;
67049;SDS011;53955;52.442;13.284;2022-12-18T06:57:34;29.03;;;11.80;;
67049;SDS011;53955;52.442;13.284;2022-12-18T07:00:01;26.63;;;11.00;;
67049;SDS011;53955;52.442;13.284;2022-12-18T07:02:29;30.83;;;12.93;;
67049;SDS011;53955;52.442;13.284;2022-12-18T07:04:56;27.23;;;10.67;;
67049;SDS011;53955;52.442;13.284;2022-12-18T07:07:24;34.93;;;12.07;;
67049;SDS011;53955;52.442;13.284;2022-12-18T07:09:50;28.07;;;12.20;;
67049;SDS011;53955;52.442;13.284;2022-12-18T07:12:17;35.90;;;13.13;;
67049;SDS011;53955;52.442;13.284;2022-12-18T07:14:44;39.27;;;15.13;;
67049;SDS011;53955;52.442;13.284;2022-12-18T07:17:11;36.67;;;13.30;;
67049;SDS011;53955;52.442;13.284;2022-12-18T07:19:37;39.70;;;13.57;;
67049;SDS011;53955;52.442;13.284;2022-12-18T07:22:04;34.77;;;13.47;;
67049;SDS011;53955;52.442;13.284;2022-12-18T07:24:33;42.13;;;15.70;;
67049;SDS011;53955;52.442;13.284;2022-12-18T07:26:59;43.60;;;14.30;;
67049;SDS011;53955;52.442;13.284;2022-12-18T07:29:26;41.27;;;13.90;;
67049;SDS011;53955;52.442;13.284;2022-12-18T07:31:53;58.90;;;17.63;;
67049;SDS011;53955;52.442;13.284;2022-12-18T07:34:20;48.17;;;16.83;;
67049;SDS011;53955;52.442;13.284;2022-12-18T07:36:46;48.20;;;17.40;;
67049;SDS011;53955;52.442;13.284;2022-12-18T07:39:13;53.23;;;17.73;;
67049;SDS011;53955;52.442;13.284;2022-12-18T07:41:41;52.93;;;19.00;;
67049;SDS011;53955;52.442;13.284;2022-12-18T07:44:11;48.00;;;17.23;;
67049;SDS011;53955;52.442;13.284;2022-12-18T07:46:37;46.67;;;17.87;;
67049;SDS011;53955;52.442;13.284;2022-12-18T07:49:04;48.27;;;15.43;;
67049;SDS011;53955;52.442;13.284;2022-12-18T07:51:31;49.53;;;16.20;;
67049;SDS011;53955;52.442;13.284;2022-12-18T07:53:57;45.60;;;15.30;;
67049;SDS011;53955;52.442;13.284;2022-12-18T07:56:24;34.30;;;15.57;;
67049;SDS011;53955;52.442;13.284;2022-12-18T07:58:52;34.10;;;14.27;;
67049;SDS011;53955;52.442;13.284;2022-12-18T08:01:19;38.50;;;14.27;;
67049;SDS011;53955;52.442;13.284;2022-12-18T08:03:46;35.87;;;13.57;;
67049;SDS011;53955;52.442;13.284;2022-12-18T08:06:12;37.57;;;13.07;;
67049;SDS011;53955;52.442;13.284;2022-12-18T08:08:39;29.90;;;12.50;;
67049;SDS011;53955;52.442;13.284;2022-12-18T08:11:07;32.67;;;12.20;;
67049;SDS011;53955;52.442;13.284;2022-12-18T08:13:33;31.00;;;12.47;;
67049;SDS011;53955;52.442;13.284;2022-12-18T08:16:02;33.23;;;13.23;;
67049;SDS011;53955;52.442;13.284;2022-12-18T08:18:31;37.47;;;13.80;;
67049;SDS011;53955;52.442;13.284;2022-12-18T08:21:07;30.83;;;11.80;;
67049;SDS011;53955;52.442;13.284;2022-12-18T08:23:34;29.07;;;12.13;;
67049;SDS011;53955;52.442;13.284;2022-12-18T08:26:00;28.63;;;11.80;;
67049;SDS011;53955;52.442;13.284;2022-12-18T08:28:27;36.43;;;13.63;;
67049;SDS011;53955;52.442;13.284;2022-12-18T08:30:53;30.73;;;12.60;;
67049;SDS011;53955;52.442;13.284;2022-12-18T08:33:21;41.90;;;13.10;;
67049;SDS011;53955;52.442;13.284;2022-12-18T08:35:48;32.37;;;11.23;;
67049;SDS011;53955;52.442;13.284;2022-12-18T08:38:15;36.63;;;13.00;;
67049;SDS011;53955;52.442;13.284;2022-12-18T08:40:41;31.90;;;12.13;;
67049;SDS011;53955;52.442;13.284;2022-12-18T08:43:08;32.40;;;13.07;;
67049;SDS011;53955;52.442;13.284;2022-12-18T08:45:53;36.97;;;15.03;;
67049;SDS011;53955;52.442;13.284;2022-12-18T08:48:22;35.50;;;11.30;;
67049;SDS011;53955;52.442;13.284;2022-12-18T08:50:53;32.57;;;12.30;;
67049;SDS011;53955;52.442;13.284;2022-12-18T08:53:20;38.73;;;13.83;;
67049;SDS011;53955;52.442;13.284;2022-12-18T08:55:47;26.37;;;11.93;;
67049;SDS011;53955;52.442;13.284;2022-12-18T08:58:13;29.40;;;12.20;;
67049;SDS011;53955;52.442;13.284;2022-12-18T09:00:40;32.60;;;11.60;;
67049;SDS011;53955;52.442;13.284;2022-12-18T09:03:09;32.47;;;12.63;;
67049;SDS011;53955;52.442;13.284;2022-12-18T09:05:38;33.63;;;12.80;;
67049;SDS011;53955;52.442;13.284;2022-12-18T09:08:05;32.37;;;12.37;;
67049;SDS011;53955;52.442;13.284;2022-12-18T09:10:32;36.50;;;12.53;;
67049;SDS011;53955;52.442;13.284;2022-12-18T09:12:58;33.53;;;12.60;;
67049;SDS011;53955;52.442;13.284;2022-12-18T09:15:25;35.47;;;12.70;;
67049;SDS011;53955;52.442;13.284;2022-12-18T09:17:52;33.37;;;13.00;;
67049;SDS011;53955;52.442;13.284;2022-12-18T09:20:18;37.50;;;13.43;;
67049;SDS011;53955;52.442;13.284;2022-12-18T09:22:47;41.43;;;13.90;;
67049;SDS011;53955;52.442;13.284;2022-12-18T09:25:13;35.30;;;13.13;;
67049;SDS011;53955;52.442;13.284;2022-12-18T09:27:40;37.73;;;12.60;;
67049;SDS011;53955;52.442;13.284;2022-12-18T09:30:07;35.60;;;15.13;;
67049;SDS011;53955;52.442;13.284;2022-12-18T09:32:34;37.80;;;14.20;;
67049;SDS011;53955;52.442;13.284;2022-12-18T09:35:01;41.33;;;13.97;;
67049;SDS011;53955;52.442;13.284;2022-12-18T09:37:27;44.07;;;15.37;;
67049;SDS011;53955;52.442;13.284;2022-12-18T09:39:55;34.60;;;13.00;;
67049;SDS011;53955;52.442;13.284;2022-12-18T09:42:22;35.70;;;12.70;;
67049;SDS011;53955;52.442;13.284;2022-12-18T09:44:49;36.47;;;14.50;;
67049;SDS011;53955;52.442;13.284;2022-12-18T09:47:18;34.03;;;12.57;;
67049;SDS011;53955;52.442;13.284;2022-12-18T09:49:49;41.80;;;13.27;;
67049;SDS011;53955;52.442;13.284;2022-12-18T09:52:20;39.37;;;13.90;;
67049;SDS011;53955;52.442;13.284;2022-12-18T09:54:50;35.73;;;13.40;;
67049;SDS011;53955;52.442;13.284;2022-12-18T09:57:23;41.00;;;14.03;;
67049;SDS011;53955;52.442;13.284;2022-12-18T09:59:51;40.53;;;14.73;;
67049;SDS011;53955;52.442;13.284;2022-12-18T10:02:21;37.53;;;13.40;;
67049;SDS011;53955;52.442;13.284;2022-12-18T10:04:55;39.60;;;15.57;;
67049;SDS011;53955;52.442;13.284;2022-12-18T10:07:32;44.60;;;16.37;;
67049;SDS011;53955;52.442;13.284;2022-12-18T10:10:11;38.40;;;13.77;;
67049;SDS011;53955;52.442;13.284;2022-12-18T10:12:48;35.13;;;13.00;;
67049;SDS011;53955;52.442;13.284;2022-12-18T10:15:22;36.33;;;12.40;;
67049;SDS011;53955;52.442;13.284;2022-12-18T10:17:57;32.63;;;11.47;;
67049;SDS011;53955;52.442;13.284;2022-12-18T10:20:33;33.43;;;12.27;;
67049;SDS011;53955;52.442;13.284;2022-12-18T10:23:09;28.47;;;12.37;;
67049;SDS011;53955;52.442;13.284;2022-12-18T10:25:45;28.50;;;12.77;;
67049;SDS011;53955;52.442;13.284;2022-12-18T10:28:19;31.50;;;11.83;;
67049;SDS011;53955;52.442;13.284;2022-12-18T10:30:46;34.60;;;12.73;;
67049;SDS011;53955;52.442;13.284;2022-12-18T10:33:16;27.20;;;10.80;;
67049;SDS011;53955;52.442;13.284;2022-12-18T10:35:45;26.77;;;10.33;;
67049;SDS011;53955;52.442;13.284;2022-12-18T10:38:21;23.47;;;9.90;;
67049;SDS011;53955;52.442;13.284;2022-12-18T10:40:51;24.97;;;11.03;;
67049;SDS011;53955;52.442;13.284;2022-12-18T10:43:22;30.30;;;12.27;;
67049;SDS011;53955;52.442;13.284;2022-12-18T10:45:58;26.60;;;11.17;;
67049;SDS011;53955;52.442;13.284;2022-12-18T10:48:40;23.97;;;10.60;;
67049;SDS011;53955;52.442;13.284;2022-12-18T10:51:19;27.73;;;11.00;;
67049;SDS011;53955;52.442;13.284;2022-12-18T10:53:50;28.30;;;10.97;;
67049;SDS011;53955;52.442;13.284;2022-12-18T10:56:20;34.27;;;11.43;;
67049;SDS011;53955;52.442;13.284;2022-12-18T10:58:55;24.93;;;10.37;;
67049;SDS011;53955;52.442;13.284;2022-12-18T11:01:22;30.47;;;11.00;;
67049;SDS011;53955;52.442;13.284;2022-12-18T11:03:58;30.90;;;12.43;;
67049;SDS011;53955;52.442;13.284;2022-12-18T11:06:26;27.97;;;11.90;;
67049;SDS011;53955;52.442;13.284;2022-12-18T11:08:57;29.27;;;11.30;;
67049;SDS011;53955;52.442;13.284;2022-12-18T11:11:25;28.43;;;12.07;;
67049;SDS011;53955;52.442;13.284;2022-12-18T11:13:57;25.23;;;11.47;;
67049;SDS011;53955;52.442;13.284;2022-12-18T11:16:26;32.40;;;13.27;;
67049;SDS011;53955;52.442;13.284;2022-12-18T11:18:55;30.90;;;13.63;;
67049;SDS011;53955;52.442;13.284;2022-12-18T11:21:41;30.37;;;13.30;;
67049;SDS011;53955;52.442;13.284;2022-12-18T11:24:13;32.30;;;12.67;;
67049;SDS011;53955;52.442;13.284;2022-12-18T11:26:44;32.17;;;12.83;;
67049;SDS011;53955;52.442;13.284;2022-12-18T11:29:15;25.97;;;11.67;;
67049;SDS011;53955;52.442;13.284;2022-12-18T11:31:43;32.63;;;12.13;;
67049;SDS011;53955;52.442;13.284;2022-12-18T11:34:10;36.20;;;13.50;;
67049;SDS011;53955;52.442;13.284;2022-12-18T11:36:41;35.30;;;13.43;;
67049;SDS011;53955;52.442;13.284;2022-12-18T11:39:12;28.30;;;11.23;;
67049;SDS011;53955;52.442;13.284;2022-12-18T11:41:45;32.00;;;12.73;;
67049;SDS011;53955;52.442;13.284;2022-12-18T11:44:38;29.83;;;13.40;;
67049;SDS011;53955;52.442;13.284;2022-12-18T11:47:12;29.43;;;11.83;;
67049;SDS011;53955;52.442;13.284;2022-12-18T11:49:45;30.23;;;12.30;;
67049;SDS011;53955;52.442;13.284;2022-12-18T11:52:15;32.23;;;13.17;;
67049;SDS011;53955;52.442;13.284;2022-12-18T11:54:45;33.07;;;12.93;;
67049;SDS011;53955;52.442;13.284;2022-12-18T11:57:18;27.53;;;11.13;;
67049;SDS011;53955;52.442;13.284;2022-12-18T11:59:56;32.40;;;12.00;;
67049;SDS011;53955;52.442;13.284;2022-12-18T12:02:34;28.77;;;13.30;;
67049;SDS011;53955;52.442;13.284;2022-12-18T12:05:13;28.17;;;11.73;;
67049;SDS011;53955;52.442;13.284;2022-12-18T12:07:52;28.60;;;11.70;;
67049;SDS011;53955;52.442;13.284;2022-12-18T12:10:28;32.30;;;12.20;;
67049;SDS011;53955;52.442;13.284;2022-12-18T12:13:13;30.13;;;12.13;;
67049;SDS011;53955;52.442;13.284;2022-12-18T12:15:48;26.70;;;12.17;;
67049;SDS011;53955;52.442;13.284;2022-12-18T12:18:25;27.33;;;11.60;;
67049;SDS011;53955;52.442;13.284;2022-12-18T12:21:01;25.17;;;11.03;;
67049;SDS011;53955;52.442;13.284;2022-12-18T12:23:36;26.23;;;11.83;;
67049;SDS011;53955;52.442;13.284;2022-12-18T12:26:10;27.07;;;11.10;;
67049;SDS011;53955;52.442;13.284;2022-12-18T12:31:32;26.53;;;11.47;;
67049;SDS011;53955;52.442;13.284;2022-12-18T12:34:13;26.53;;;11.83;;
67049;SDS011;53955;52.442;13.284;2022-12-18T12:36:48;29.53;;;11.60;;
67049;SDS011;53955;52.442;13.284;2022-12-18T12:39:23;31.60;;;12.03;;
67049;SDS011;53955;52.442;13.284;2022-12-18T12:41:55;28.07;;;10.97;;
67049;SDS011;53955;52.442;13.284;2022-12-18T12:44:41;24.33;;;11.03;;
67049;SDS011;53955;52.442;13.284;2022-12-18T12:47:14;24.57;;;10.70;;
67049;SDS011;53955;52.442;13.284;2022-12-18T12:49:43;29.90;;;12.03;;
67049;SDS011;53955;52.442;13.284;2022-12-18T12:52:14;32.63;;;12.30;;
67049;SDS011;53955;52.442;13.284;2022-12-18T12:54:43;26.37;;;11.80;;
67049;SDS011;53955;52.442;13.284;2022-12-18T12:57:11;28.20;;;12.83;;
67049;SDS011;53955;52.442;13.284;2022-12-18T12:59:42;30.80;;;12.37;;
67049;SDS011;53955;52.442;13.284;2022-12-18T13:02:17;25.53;;;11.10;;
67049;SDS011;53955;52.442;13.284;2022-12-18T13:04:49;29.73;;;12.03;;
67049;SDS011;53955;52.442;13.284;2022-12-18T13:07:23;29.23;;;11.87;;
67049;SDS011;53955;52.442;13.284;2022-12-18T13:10:22;27.30;;;11.77;;
67049;SDS011;53955;52.442;13.284;2022-12-18T13:12:51;30.00;;;12.20;;
67049;SDS011;53955;52.442;13.284;2022-12-18T13:15:21;27.00;;;11.37;;
67049;SDS011;53955;52.442;13.284;2022-12-18T13:18:03;24.17;;;12.17;;
67049;SDS011;53955;52.442;13.284;2022-12-18T13:20:32;23.30;;;10.73;;
67049;SDS011;53955;52.442;13.284;2022-12-18T13:23:01;26.33;;;11.63;;
67049;SDS011;53955;52.442;13.284;2022-12-18T13:25:45;29.80;;;12.77;;
67049;SDS011;53955;52.442;13.284;2022-12-18T13:28:12;27.43;;;11.20;;
67049;SDS011;53955;52.442;13.284;2022-12-18T13:30:41;26.57;;;11.17;;
67049;SDS011;53955;52.442;13.284;2022-12-18T13:33:34;28.53;;;11.90;;
67049;SDS011;53955;52.442;13.284;2022-12-18T13:36:12;29.40;;;12.43;;
67049;SDS011;53955;52.442;13.284;2022-12-18T13:41:37;30.80;;;10.73;;
67049;SDS011;53955;52.442;13.284;2022-12-18T13:44:10;23.07;;;10.60;;
67049;SDS011;53955;52.442;13.284;2022-12-18T13:46:42;25.27;;;11.70;;
67049;SDS011;53955;52.442;13.284;2022-12-18T13:49:17;26.43;;;10.50;;
67049;SDS011;53955;52.442;13.284;2022-12-18T13:51:49;26.20;;;11.57;;
67049;SDS011;53955;52.442;13.284;2022-12-18T13:54:18;22.87;;;11.17;;
67049;SDS011;53955;52.442;13.284;2022-12-18T13:56:48;25.03;;;10.40;;
67049;SDS011;53955;52.442;13.284;2022-12-18T13:59:16;25.47;;;11.47;;
67049;SDS011;53955;52.442;13.284;2022-12-18T14:01:46;25.63;;;11.83;;
67049;SDS011;53955;52.442;13.284;2022-12-18T14:04:19;32.07;;;14.20;;
67049;SDS011;53955;52.442;13.284;2022-12-18T14:06:49;27.17;;;12.40;;
67049;SDS011;53955;52.442;13.284;2022-12-18T14:09:19;29.47;;;12.57;;
67049;SDS011;53955;52.442;13.284;2022-12-18T14:11:49;31.73;;;13.27;;
67049;SDS011;53955;52.442;13.284;2022-12-18T14:14:17;26.23;;;11.67;;
67049;SDS011;53955;52.442;13.284;2022-12-18T14:16:45;28.43;;;12.67;;
67049;SDS011;53955;52.442;13.284;2022-12-18T14:19:13;38.60;;;15.10;;
67049;SDS011;53955;52.442;13.284;2022-12-18T14:21:46;33.27;;;12.90;;
67049;SDS011;53955;52.442;13.284;2022-12-18T14:24:14;35.40;;;14.33;;
67049;SDS011;53955;52.442;13.284;2022-12-18T14:26:43;34.00;;;13.87;;
67049;SDS011;53955;52.442;13.284;2022-12-18T14:29:21;36.07;;;16.03;;
67049;SDS011;53955;52.442;13.284;2022-12-18T14:32:05;35.13;;;13.67;;